sensor_id;sensor_type;location;lat;lon;timestamp;pressure;altitude;pressure_sealevel;temperature;humidity
10720;BME280;5411;58.386;15.560;2023-07-20T00:00:46;99373.28;;;12.68;100.00
10720;BME280;5411;58.386;15.560;2023-07-20T00:03:32;99367.34;;;12.66;100.00
10720;BME280;5411;58.386;15.560;2023-07-20T00:06:00;99371.91;;;12.66;100.00
10720;BME280;5411;58.386;15.560;2023-07-20T00:08:31;99370.28;;;12.65;100.00
10720;BME280;5411;58.386;15.560;2023-07-20T00:11:01;99373.22;;;12.63;100.00
10720;BME280;5411;58.386;15.560;2023-07-20T00:13:53;99359.78;;;12.63;100.00
10720;BME280;5411;58.386;15.560;2023-07-20T00:16:24;99367.84;;;12.63;100.00
10720;BME280;5411;58.386;15.560;2023-07-20T00:18:54;99357.13;;;12.63;100.00
10720;BME280;5411;58.386;15.560;2023-07-20T00:21:22;99365.41;;;12.62;100.00
10720;BME280;5411;58.386;15.560;2023-07-20T00:23:51;99362.94;;;12.60;100.00
10720;BME280;5411;58.386;15.560;2023-07-20T00:26:21;99367.75;;;12.58;100.00
10720;BME280;5411;58.386;15.560;2023-07-20T00:28:52;99366.13;;;12.57;100.00
10720;BME280;5411;58.386;15.560;2023-07-20T00:31:21;99360.41;;;12.54;100.00
10720;BME280;5411;58.386;15.560;2023-07-20T00:33:49;99353.66;;;12.51;100.00
10720;BME280;5411;58.386;15.560;2023-07-20T00:36:18;99355.53;;;12.51;100.00
10720;BME280;5411;58.386;15.560;2023-07-20T00:38:47;99357.06;;;12.46;100.00
10720;BME280;5411;58.386;15.560;2023-07-20T00:41:17;99359.16;;;12.44;100.00
10720;BME280;5411;58.386;15.560;2023-07-20T00:43:47;99358.69;;;12.47;100.00
10720;BME280;5411;58.386;15.560;2023-07-20T00:46:16;99356.25;;;12.46;100.00
10720;BME280;5411;58.386;15.560;2023-07-20T00:48:47;99363.47;;;12.45;100.00
10720;BME280;5411;58.386;15.560;2023-07-20T00:51:15;99357.53;;;12.43;100.00
10720;BME280;5411;58.386;15.560;2023-07-20T00:53:44;99359.63;;;12.41;100.00
10720;BME280;5411;58.386;15.560;2023-07-20T00:56:12;99362.56;;;12.40;100.00
10720;BME280;5411;58.386;15.560;2023-07-20T00:58:41;99358.50;;;12.37;100.00
10720;BME280;5411;58.386;15.560;2023-07-20T01:01:11;99365.25;;;12.40;100.00
10720;BME280;5411;58.386;15.560;2023-07-20T01:03:39;99361.75;;;12.39;100.00
10720;BME280;5411;58.386;15.560;2023-07-20T01:06:15;99360.69;;;12.40;100.00
10720;BME280;5411;58.386;15.560;2023-07-20T01:08:57;99363.38;;;12.40;100.00
10720;BME280;5411;58.386;15.560;2023-07-20T01:11:36;99352.88;;;12.39;100.00
10720;BME280;5411;58.386;15.560;2023-07-20T01:14:06;99356.38;;;12.39;100.00
10720;BME280;5411;58.386;15.560;2023-07-20T01:16:37;99346.69;;;12.38;100.00
10720;BME280;5411;58.386;15.560;2023-07-20T01:19:07;99348.59;;;12.38;100.00
10720;BME280;5411;58.386;15.560;2023-07-20T01:21:39;99348.59;;;12.38;100.00
10720;BME280;5411;58.386;15.560;2023-07-20T01:24:33;99346.69;;;12.38;100.00
10720;BME280;5411;58.386;15.560;2023-07-20T01:30:46;99349.38;;;12.38;100.00
10720;BME280;5411;58.386;15.560;2023-07-20T01:33:20;99346.47;;;12.40;100.00
10720;BME280;5411;58.386;15.560;2023-07-20T01:35:53;99343.78;;;12.40;100.00
10720;BME280;5411;58.386;15.560;2023-07-20T01:38:29;99347.03;;;12.42;100.00
10720;BME280;5411;58.386;15.560;2023-07-20T01:40:58;99345.41;;;12.41;100.00
10720;BME280;5411;58.386;15.560;2023-07-20T01:43:28;99345.41;;;12.41;100.00
10720;BME280;5411;58.386;15.560;2023-07-20T01:45:59;99332.56;;;12.43;100.00
10720;BME280;5411;58.386;15.560;2023-07-20T01:48:29;99343.31;;;12.43;100.00
10720;BME280;5411;58.386;15.560;2023-07-20T01:50:57;99329.31;;;12.41;100.00
10720;BME280;5411;58.386;15.560;2023-07-20T01:53:26;99343.31;;;12.43;100.00
10720;BME280;5411;58.386;15.560;2023-07-20T01:55:56;99347.84;;;12.42;100.00
10720;BME280;5411;58.386;15.560;2023-07-20T01:58:25;99346.81;;;12.43;100.00
10720;BME280;5411;58.386;15.560;2023-07-20T02:00:53;99339.00;;;12.42;100.00
10720;BME280;5411;58.386;15.560;2023-07-20T02:03:25;99331.19;;;12.40;100.00
10720;BME280;5411;58.386;15.560;2023-07-20T02:05:55;99327.69;;;12.40;100.00
10720;BME280;5411;58.386;15.560;2023-07-20T02:08:24;99327.69;;;12.40;100.00
10720;BME280;5411;58.386;15.560;2023-07-20T02:10:55;99328.25;;;12.42;100.00
10720;BME280;5411;58.386;15.560;2023-07-20T02:13:24;99333.63;;;12.42;100.00
10720;BME280;5411;58.386;15.560;2023-07-20T02:15:54;99322.91;;;12.42;100.00
10720;BME280;5411;58.386;15.560;2023-07-20T02:18:23;99324.53;;;12.43;100.00
10720;BME280;5411;58.386;15.560;2023-07-20T02:20:56;99322.91;;;12.42;100.00
10720;BME280;5411;58.386;15.560;2023-07-20T02:23:27;99326.41;;;12.42;100.00
10720;BME280;5411;58.386;15.560;2023-07-20T02:25:56;99327.22;;;12.43;100.00
10720;BME280;5411;58.386;15.560;2023-07-20T02:28:26;99328.03;;;12.43;100.00
10720;BME280;5411;58.386;15.560;2023-07-20T02:30:56;99331.28;;;12.45;100.00
10720;BME280;5411;58.386;15.560;2023-07-20T02:33:24;99335.38;;;12.48;100.00
10720;BME280;5411;58.386;15.560;2023-07-20T02:36:02;99331.63;;;12.49;100.00
10720;BME280;5411;58.386;15.560;2023-07-20T02:38:33;99332.44;;;12.49;100.00
10720;BME280;5411;58.386;15.560;2023-07-20T02:41:02;99333.25;;;12.50;100.00
10720;BME280;5411;58.386;15.560;2023-07-20T02:43:30;99328.94;;;12.49;100.00
10720;BME280;5411;58.386;15.560;2023-07-20T02:45:58;99328.94;;;12.49;100.00
10720;BME280;5411;58.386;15.560;2023-07-20T02:48:27;99331.63;;;12.49;100.00
10720;BME280;5411;58.386;15.560;2023-07-20T02:50:55;99320.66;;;12.51;100.00
10720;BME280;5411;58.386;15.560;2023-07-20T02:53:25;99334.88;;;12.51;100.00
10720;BME280;5411;58.386;15.560;2023-07-20T02:55:54;99330.41;;;12.57;100.00
10720;BME280;5411;58.386;15.560;2023-07-20T02:58:25;99328.00;;;12.72;100.00
10720;BME280;5411;58.386;15.560;2023-07-20T03:00:53;99328.97;;;12.82;100.00
10720;BME280;5411;58.386;15.560;2023-07-20T03:03:22;99323.94;;;12.86;100.00
10720;BME280;5411;58.386;15.560;2023-07-20T03:05:55;99328.09;;;12.94;100.00
10720;BME280;5411;58.386;15.560;2023-07-20T03:08:29;99327.22;;;13.05;100.00
10720;BME280;5411;58.386;15.560;2023-07-20T03:10:57;99321.78;;;13.16;100.00
10720;BME280;5411;58.386;15.560;2023-07-20T03:13:27;99326.66;;;13.36;100.00
10720;BME280;5411;58.386;15.560;2023-07-20T03:15:58;99332.31;;;13.57;100.00
10720;BME280;5411;58.386;15.560;2023-07-20T03:18:29;99324.53;;;13.77;100.00
10720;BME280;5411;58.386;15.560;2023-07-20T03:20:57;99325.69;;;13.86;99.67
10720;BME280;5411;58.386;15.560;2023-07-20T03:23:26;99326.03;;;13.89;99.16
10720;BME280;5411;58.386;15.560;2023-07-20T03:25:58;99326.66;;;13.97;99.07
10720;BME280;5411;58.386;15.560;2023-07-20T03:28:27;99323.09;;;13.91;98.44
10720;BME280;5411;58.386;15.560;2023-07-20T03:30:56;99324.59;;;13.82;99.02
10720;BME280;5411;58.386;15.560;2023-07-20T03:33:26;99324.75;;;13.75;99.04
10720;BME280;5411;58.386;15.560;2023-07-20T03:36:03;99320.41;;;13.69;99.28
10720;BME280;5411;58.386;15.560;2023-07-20T03:38:32;99322.28;;;13.69;99.36
10720;BME280;5411;58.386;15.560;2023-07-20T03:41:02;99322.75;;;13.66;99.81
10720;BME280;5411;58.386;15.560;2023-07-20T03:43:30;99320.66;;;13.68;99.50
10720;BME280;5411;58.386;15.560;2023-07-20T03:45:59;99318.09;;;13.78;99.54
10720;BME280;5411;58.386;15.560;2023-07-20T03:48:36;99324.22;;;13.95;98.35
10720;BME280;5411;58.386;15.560;2023-07-20T03:51:07;99321.91;;;14.04;98.05
10720;BME280;5411;58.386;15.560;2023-07-20T03:53:35;99326.97;;;14.22;97.85
10720;BME280;5411;58.386;15.560;2023-07-20T03:56:08;99330.72;;;14.43;96.79
10720;BME280;5411;58.386;15.560;2023-07-20T03:58:36;99328.22;;;14.63;95.68
10720;BME280;5411;58.386;15.560;2023-07-20T04:01:05;99328.09;;;14.80;94.64
10720;BME280;5411;58.386;15.560;2023-07-20T04:03:35;99325.28;;;14.96;93.70
10720;BME280;5411;58.386;15.560;2023-07-20T04:06:04;99320.03;;;15.12;93.02
10720;BME280;5411;58.386;15.560;2023-07-20T04:08:35;99324.16;;;15.24;92.27
10720;BME280;5411;58.386;15.560;2023-07-20T04:11:04;99312.38;;;15.36;91.87
10720;BME280;5411;58.386;15.560;2023-07-20T04:13:34;99319.19;;;15.43;91.41
10720;BME280;5411;58.386;15.560;2023-07-20T04:16:02;99312.16;;;15.47;90.76
10720;BME280;5411;58.386;15.560;2023-07-20T04:18:31;99314.34;;;15.50;90.54
10720;BME280;5411;58.386;15.560;2023-07-20T04:20:59;99315.47;;;15.54;90.85
10720;BME280;5411;58.386;15.560;2023-07-20T04:23:31;99318.75;;;15.56;90.59
10720;BME280;5411;58.386;15.560;2023-07-20T04:25:59;99310.59;;;15.51;90.59
10720;BME280;5411;58.386;15.560;2023-07-20T04:28:29;99323.00;;;15.52;90.97
10720;BME280;5411;58.386;15.560;2023-07-20T04:31:10;99318.28;;;15.70;90.68
10720;BME280;5411;58.386;15.560;2023-07-20T04:33:39;99305.63;;;15.75;90.27
10720;BME280;5411;58.386;15.560;2023-07-20T04:36:08;99316.91;;;15.72;89.30
10720;BME280;5411;58.386;15.560;2023-07-20T04:38:37;99310.16;;;15.64;89.54
10720;BME280;5411;58.386;15.560;2023-07-20T04:41:07;99310.66;;;15.61;90.01
10720;BME280;5411;58.386;15.560;2023-07-20T04:43:35;99301.75;;;15.56;89.94
10720;BME280;5411;58.386;15.560;2023-07-20T04:46:04;99313.91;;;15.63;90.31
10720;BME280;5411;58.386;15.560;2023-07-20T04:48:33;99311.78;;;15.65;90.01
10720;BME280;5411;58.386;15.560;2023-07-20T04:51:02;99303.44;;;15.67;90.32
10720;BME280;5411;58.386;15.560;2023-07-20T04:53:31;99303.72;;;15.76;90.15
10720;BME280;5411;58.386;15.560;2023-07-20T04:55:59;99304.03;;;15.79;90.32
10720;BME280;5411;58.386;15.560;2023-07-20T04:58:28;99309.97;;;15.81;89.69
10720;BME280;5411;58.386;15.560;2023-07-20T05:00:57;99307.00;;;15.83;89.85
10720;BME280;5411;58.386;15.560;2023-07-20T05:03:25;99297.28;;;15.87;89.69
10720;BME280;5411;58.386;15.560;2023-07-20T05:05:58;99304.84;;;15.85;89.11
10720;BME280;5411;58.386;15.560;2023-07-20T05:08:27;99304.06;;;15.84;89.60
10720;BME280;5411;58.386;15.560;2023-07-20T05:10:55;99305.41;;;15.87;89.79
10720;BME280;5411;58.386;15.560;2023-07-20T05:13:28;99307.03;;;15.88;90.10
10720;BME280;5411;58.386;15.560;2023-07-20T05:15:56;99298.16;;;15.92;89.98
10720;BME280;5411;58.386;15.560;2023-07-20T05:18:27;99299.25;;;15.96;89.87
10720;BME280;5411;58.386;15.560;2023-07-20T05:20:56;99299.53;;;16.05;89.45
10720;BME280;5411;58.386;15.560;2023-07-20T05:23:25;99301.75;;;16.18;88.80
10720;BME280;5411;58.386;15.560;2023-07-20T05:25:56;99300.66;;;16.19;88.71
10720;BME280;5411;58.386;15.560;2023-07-20T05:28:26;99302.53;;;16.14;88.63
10720;BME280;5411;58.386;15.560;2023-07-20T05:30:55;99302.75;;;16.02;89.84
10720;BME280;5411;58.386;15.560;2023-07-20T05:33:26;99299.81;;;16.03;89.91
10720;BME280;5411;58.386;15.560;2023-07-20T05:35:56;99290.09;;;16.13;89.56
10720;BME280;5411;58.386;15.560;2023-07-20T05:38:27;99300.13;;;16.27;89.64
10720;BME280;5411;58.386;15.560;2023-07-20T05:41:01;99298.84;;;16.55;89.30
10720;BME280;5411;58.386;15.560;2023-07-20T05:43:30;99294.84;;;16.73;87.58
10720;BME280;5411;58.386;15.560;2023-07-20T05:45:59;99293.75;;;16.79;86.25
10720;BME280;5411;58.386;15.560;2023-07-20T05:48:28;99290.25;;;16.79;86.52
10720;BME280;5411;58.386;15.560;2023-07-20T05:50:58;99294.06;;;16.88;86.24
10720;BME280;5411;58.386;15.560;2023-07-20T05:53:27;99287.56;;;16.89;86.06
10720;BME280;5411;58.386;15.560;2023-07-20T05:55:55;99290.53;;;16.87;86.49
10720;BME280;5411;58.386;15.560;2023-07-20T05:58:24;99294.31;;;16.96;85.94
10720;BME280;5411;58.386;15.560;2023-07-20T06:00:54;99287.03;;;17.02;86.37
10720;BME280;5411;58.386;15.560;2023-07-20T06:03:22;99297.00;;;17.12;85.55
10720;BME280;5411;58.386;15.560;2023-07-20T06:05:57;99294.81;;;17.24;84.18
10720;BME280;5411;58.386;15.560;2023-07-20T06:08:27;99298.63;;;17.23;83.79
10720;BME280;5411;58.386;15.560;2023-07-20T06:10:56;99297.00;;;17.17;82.82
10720;BME280;5411;58.386;15.560;2023-07-20T06:13:24;99301.59;;;17.21;83.97
10720;BME280;5411;58.386;15.560;2023-07-20T06:15:53;99294.28;;;17.22;82.49
10720;BME280;5411;58.386;15.560;2023-07-20T06:18:24;99299.16;;;17.25;82.95
10720;BME280;5411;58.386;15.560;2023-07-20T06:20:56;99297.53;;;17.29;83.34
10720;BME280;5411;58.386;15.560;2023-07-20T06:23:32;99297.47;;;17.49;81.88
10720;BME280;5411;58.386;15.560;2023-07-20T06:26:05;99300.19;;;17.64;80.69
10720;BME280;5411;58.386;15.560;2023-07-20T06:28:33;99291.78;;;17.71;80.77
10720;BME280;5411;58.386;15.560;2023-07-20T06:31:03;99308.25;;;17.74;78.99
10720;BME280;5411;58.386;15.560;2023-07-20T06:33:33;99302.25;;;17.93;78.57
10720;BME280;5411;58.386;15.560;2023-07-20T06:36:03;99302.13;;;18.18;77.83
10720;BME280;5411;58.386;15.560;2023-07-20T06:38:38;99287.69;;;18.33;76.51
10720;BME280;5411;58.386;15.560;2023-07-20T06:41:09;99289.53;;;18.42;74.17
10720;BME280;5411;58.386;15.560;2023-07-20T06:43:40;99287.22;;;18.65;73.02
10720;BME280;5411;58.386;15.560;2023-07-20T06:46:11;99289.81;;;18.80;72.15
10720;BME280;5411;58.386;15.560;2023-07-20T06:48:39;99288.50;;;19.11;72.24
10720;BME280;5411;58.386;15.560;2023-07-20T06:51:11;99274.16;;;19.35;71.29
10720;BME280;5411;58.386;15.560;2023-07-20T06:53:41;99292.00;;;19.41;68.83
10720;BME280;5411;58.386;15.560;2023-07-20T06:56:18;99278.25;;;19.32;68.33
10720;BME280;5411;58.386;15.560;2023-07-20T06:58:51;99295.19;;;19.19;69.28
10720;BME280;5411;58.386;15.560;2023-07-20T07:01:20;99277.97;;;19.05;69.28
10720;BME280;5411;58.386;15.560;2023-07-20T07:03:49;99279.28;;;19.07;69.18
10720;BME280;5411;58.386;15.560;2023-07-20T07:06:24;99273.44;;;18.95;68.43
10720;BME280;5411;58.386;15.560;2023-07-20T07:08:58;99287.00;;;18.95;69.35
10720;BME280;5411;58.386;15.560;2023-07-20T07:11:28;99283.53;;;18.90;68.25
10720;BME280;5411;58.386;15.560;2023-07-20T07:13:57;99288.78;;;18.76;70.06
10720;BME280;5411;58.386;15.560;2023-07-20T07:16:31;99288.41;;;18.48;70.99
10720;BME280;5411;58.386;15.560;2023-07-20T07:19:04;99290.88;;;18.40;70.66
10720;BME280;5411;58.386;15.560;2023-07-20T07:21:34;99286.91;;;18.27;70.42
10720;BME280;5411;58.386;15.560;2023-07-20T07:24:04;99294.47;;;18.35;71.25
10720;BME280;5411;58.386;15.560;2023-07-20T07:26:36;99277.31;;;18.45;70.51
10720;BME280;5411;58.386;15.560;2023-07-20T07:29:04;99284.81;;;18.63;70.07
10720;BME280;5411;58.386;15.560;2023-07-20T07:31:49;99285.56;;;18.74;69.21
10720;BME280;5411;58.386;15.560;2023-07-20T07:34:20;99293.16;;;18.72;67.37
10720;BME280;5411;58.386;15.560;2023-07-20T07:36:48;99292.16;;;18.63;67.32
10720;BME280;5411;58.386;15.560;2023-07-20T07:39:19;99296.50;;;18.59;65.44
10720;BME280;5411;58.386;15.560;2023-07-20T07:41:52;99284.03;;;18.63;67.01
10720;BME280;5411;58.386;15.560;2023-07-20T07:44:20;99286.72;;;18.63;66.42
10720;BME280;5411;58.386;15.560;2023-07-20T07:46:49;99285.91;;;18.62;66.59
10720;BME280;5411;58.386;15.560;2023-07-20T07:49:17;99291.84;;;18.64;64.88
10720;BME280;5411;58.386;15.560;2023-07-20T07:51:49;99295.63;;;18.68;66.46
10720;BME280;5411;58.386;15.560;2023-07-20T07:54:20;99291.53;;;18.71;67.16
10720;BME280;5411;58.386;15.560;2023-07-20T07:56:55;99283.09;;;18.77;67.52
10720;BME280;5411;58.386;15.560;2023-07-20T07:59:30;99277.88;;;18.86;66.97
10720;BME280;5411;58.386;15.560;2023-07-20T08:02:04;99288.06;;;18.99;67.17
10720;BME280;5411;58.386;15.560;2023-07-20T08:04:35;99289.59;;;19.10;65.68
10720;BME280;5411;58.386;15.560;2023-07-20T08:07:04;99292.25;;;19.15;65.25
10720;BME280;5411;58.386;15.560;2023-07-20T08:09:36;99287.81;;;19.25;64.44
10720;BME280;5411;58.386;15.560;2023-07-20T08:12:05;99290.44;;;19.35;64.57
10720;BME280;5411;58.386;15.560;2023-07-20T08:14:34;99283.09;;;19.35;62.52
10720;BME280;5411;58.386;15.560;2023-07-20T08:17:06;99273.41;;;19.29;61.17
10720;BME280;5411;58.386;15.560;2023-07-20T08:19:37;99281.44;;;19.39;61.64
10720;BME280;5411;58.386;15.560;2023-07-20T08:22:09;99275.84;;;19.31;61.36
10720;BME280;5411;58.386;15.560;2023-07-20T08:24:41;99284.69;;;19.41;59.82
10720;BME280;5411;58.386;15.560;2023-07-20T08:27:09;99287.09;;;19.43;60.09
10720;BME280;5411;58.386;15.560;2023-07-20T08:29:40;99278.09;;;19.47;58.99
10720;BME280;5411;58.386;15.560;2023-07-20T08:32:09;99273.44;;;19.53;56.23
10720;BME280;5411;58.386;15.560;2023-07-20T08:34:42;99272.25;;;19.64;57.05
10720;BME280;5411;58.386;15.560;2023-07-20T08:37:12;99268.13;;;19.90;58.22
10720;BME280;5411;58.386;15.560;2023-07-20T08:39:43;99282.16;;;20.16;57.38
10720;BME280;5411;58.386;15.560;2023-07-20T08:42:12;99273.34;;;20.24;55.79
10720;BME280;5411;58.386;15.560;2023-07-20T08:44:42;99268.03;;;20.38;55.48
10720;BME280;5411;58.386;15.560;2023-07-20T08:47:13;99271.63;;;20.34;56.39
10720;BME280;5411;58.386;15.560;2023-07-20T08:49:44;99271.31;;;20.16;54.35
10720;BME280;5411;58.386;15.560;2023-07-20T08:52:17;99264.53;;;19.95;56.33
10720;BME280;5411;58.386;15.560;2023-07-20T08:54:47;99274.13;;;19.87;57.53
10720;BME280;5411;58.386;15.560;2023-07-20T08:57:17;99294.53;;;19.61;61.04
10720;BME280;5411;58.386;15.560;2023-07-20T08:59:47;99281.44;;;19.39;64.48
10720;BME280;5411;58.386;15.560;2023-07-20T09:02:16;99291.09;;;19.21;66.19
10720;BME280;5411;58.386;15.560;2023-07-20T09:04:45;99290.13;;;19.07;67.67
10720;BME280;5411;58.386;15.560;2023-07-20T09:07:15;99279.50;;;18.87;65.96
10720;BME280;5411;58.386;15.560;2023-07-20T09:09:45;99285.84;;;18.67;65.08
10720;BME280;5411;58.386;15.560;2023-07-20T09:12:17;99293.22;;;18.57;66.15
10720;BME280;5411;58.386;15.560;2023-07-20T09:14:55;99287.00;;;18.61;66.37
10720;BME280;5411;58.386;15.560;2023-07-20T09:17:26;99285.31;;;18.70;64.99
10720;BME280;5411;58.386;15.560;2023-07-20T09:19:56;99283.28;;;18.86;59.25
10720;BME280;5411;58.386;15.560;2023-07-20T09:22:30;99285.88;;;19.01;60.52
10720;BME280;5411;58.386;15.560;2023-07-20T09:24:58;99289.34;;;19.07;60.45
10720;BME280;5411;58.386;15.560;2023-07-20T09:27:34;99274.69;;;19.37;60.62
10720;BME280;5411;58.386;15.560;2023-07-20T09:30:05;99284.56;;;19.56;59.33
10720;BME280;5411;58.386;15.560;2023-07-20T09:32:38;99288.75;;;19.68;59.45
10720;BME280;5411;58.386;15.560;2023-07-20T09:35:20;99283.03;;;19.69;60.57
10720;BME280;5411;58.386;15.560;2023-07-20T09:37:54;99285.25;;;19.38;59.23
10720;BME280;5411;58.386;15.560;2023-07-20T09:40:28;99292.41;;;19.29;61.19
10720;BME280;5411;58.386;15.560;2023-07-20T09:43:01;99284.63;;;19.17;60.89
10720;BME280;5411;58.386;15.560;2023-07-20T09:45:35;99275.38;;;19.18;61.50
10720;BME280;5411;58.386;15.560;2023-07-20T09:48:24;99275.31;;;19.29;60.29
10720;BME280;5411;58.386;15.560;2023-07-20T09:50:56;99279.47;;;19.45;60.01
10720;BME280;5411;58.386;15.560;2023-07-20T09:53:25;99277.22;;;19.57;58.82
10720;BME280;5411;58.386;15.560;2023-07-20T09:56:03;99279.16;;;19.75;59.80
10720;BME280;5411;58.386;15.560;2023-07-20T09:58:33;99278.06;;;19.76;59.00
10720;BME280;5411;58.386;15.560;2023-07-20T10:01:07;99282.72;;;19.71;59.51
10720;BME280;5411;58.386;15.560;2023-07-20T10:03:37;99288.13;;;19.52;58.41
10720;BME280;5411;58.386;15.560;2023-07-20T10:06:08;99300.75;;;19.33;57.48
10720;BME280;5411;58.386;15.560;2023-07-20T10:08:39;99287.94;;;19.14;58.17
10720;BME280;5411;58.386;15.560;2023-07-20T10:11:12;99294.16;;;19.15;59.42
10720;BME280;5411;58.386;15.560;2023-07-20T10:13:46;99284.63;;;19.17;58.93
10720;BME280;5411;58.386;15.560;2023-07-20T10:16:23;99284.81;;;19.26;59.11
10720;BME280;5411;58.386;15.560;2023-07-20T10:19:02;99278.47;;;19.36;59.30
10720;BME280;5411;58.386;15.560;2023-07-20T10:21:47;99275.94;;;19.44;59.35
10720;BME280;5411;58.386;15.560;2023-07-20T10:24:23;99267.34;;;19.66;57.69
10720;BME280;5411;58.386;15.560;2023-07-20T10:26:51;99266.63;;;19.79;57.05
10720;BME280;5411;58.386;15.560;2023-07-20T10:29:22;99270.84;;;19.90;55.20
10720;BME280;5411;58.386;15.560;2023-07-20T10:31:53;99267.16;;;19.81;55.59
10720;BME280;5411;58.386;15.560;2023-07-20T10:34:24;99273.91;;;19.60;56.06
10720;BME280;5411;58.386;15.560;2023-07-20T10:36:53;99270.59;;;19.39;55.57
10720;BME280;5411;58.386;15.560;2023-07-20T10:39:25;99272.06;;;19.27;55.83
10720;BME280;5411;58.386;15.560;2023-07-20T10:42:02;99279.97;;;19.23;55.31
10720;BME280;5411;58.386;15.560;2023-07-20T10:44:32;99269.41;;;19.21;55.78
10720;BME280;5411;58.386;15.560;2023-07-20T10:47:03;99278.31;;;19.27;57.25
10720;BME280;5411;58.386;15.560;2023-07-20T10:49:33;99275.00;;;19.59;56.55
10720;BME280;5411;58.386;15.560;2023-07-20T10:52:05;99293.78;;;19.79;51.33
10720;BME280;5411;58.386;15.560;2023-07-20T10:54:47;99282.13;;;19.98;51.01
10720;BME280;5411;58.386;15.560;2023-07-20T10:57:24;99287.13;;;19.90;50.19
10720;BME280;5411;58.386;15.560;2023-07-20T11:00:07;99285.09;;;19.77;49.96
10720;BME280;5411;58.386;15.560;2023-07-20T11:02:44;99289.72;;;19.77;51.02
10720;BME280;5411;58.386;15.560;2023-07-20T11:05:36;99279.31;;;19.60;51.44
10720;BME280;5411;58.386;15.560;2023-07-20T11:08:07;99280.22;;;19.55;51.91
10720;BME280;5411;58.386;15.560;2023-07-20T11:10:38;99270.31;;;19.41;53.05
10720;BME280;5411;58.386;15.560;2023-07-20T11:13:17;99278.97;;;19.43;54.06
10720;BME280;5411;58.386;15.560;2023-07-20T11:15:47;99275.63;;;19.51;53.96
10720;BME280;5411;58.386;15.560;2023-07-20T11:18:17;99270.38;;;19.60;53.54
10720;BME280;5411;58.386;15.560;2023-07-20T11:20:50;99269.25;;;19.84;53.87
10720;BME280;5411;58.386;15.560;2023-07-20T11:23:41;99269.72;;;20.34;52.36
10720;BME280;5411;58.386;15.560;2023-07-20T11:26:13;99265.72;;;20.83;51.13
10720;BME280;5411;58.386;15.560;2023-07-20T11:28:42;99259.88;;;21.22;50.85
10720;BME280;5411;58.386;15.560;2023-07-20T11:31:15;99273.75;;;21.66;48.89
10720;BME280;5411;58.386;15.560;2023-07-20T11:33:44;99266.25;;;21.86;47.80
10720;BME280;5411;58.386;15.560;2023-07-20T11:36:13;99263.56;;;21.99;46.84
10720;BME280;5411;58.386;15.560;2023-07-20T11:38:47;99269.00;;;21.99;46.97
10720;BME280;5411;58.386;15.560;2023-07-20T11:41:17;99266.69;;;21.79;47.40
10720;BME280;5411;58.386;15.560;2023-07-20T11:43:48;99265.06;;;21.64;47.97
10720;BME280;5411;58.386;15.560;2023-07-20T11:46:23;99264.06;;;21.60;49.05
10720;BME280;5411;58.386;15.560;2023-07-20T11:48:57;99260.34;;;21.70;47.72
10720;BME280;5411;58.386;15.560;2023-07-20T11:51:26;99258.41;;;21.84;46.24
10720;BME280;5411;58.386;15.560;2023-07-20T11:53:56;99251.13;;;21.93;47.02
10720;BME280;5411;58.386;15.560;2023-07-20T11:56:25;99259.13;;;22.03;46.60
10720;BME280;5411;58.386;15.560;2023-07-20T11:58:57;99249.63;;;21.87;46.19
10720;BME280;5411;58.386;15.560;2023-07-20T12:01:30;99258.91;;;21.59;46.71
10720;BME280;5411;58.386;15.560;2023-07-20T12:04:04;99249.13;;;21.30;47.77
10720;BME280;5411;58.386;15.560;2023-07-20T12:06:33;99262.78;;;21.12;48.33
10720;BME280;5411;58.386;15.560;2023-07-20T12:09:02;99254.00;;;21.01;49.26
10720;BME280;5411;58.386;15.560;2023-07-20T12:11:34;99255.09;;;21.00;50.67
10720;BME280;5411;58.386;15.560;2023-07-20T12:14:03;99250.66;;;21.18;51.26
10720;BME280;5411;58.386;15.560;2023-07-20T12:16:53;99253.13;;;21.19;49.84
10720;BME280;5411;58.386;15.560;2023-07-20T12:19:25;99248.34;;;21.30;50.19
10720;BME280;5411;58.386;15.560;2023-07-20T12:21:57;99247.53;;;21.29;48.96
10720;BME280;5411;58.386;15.560;2023-07-20T12:24:27;99248.41;;;21.25;48.99
10720;BME280;5411;58.386;15.560;2023-07-20T12:26:56;99247.19;;;21.31;49.82
10720;BME280;5411;58.386;15.560;2023-07-20T12:29:26;99241.47;;;21.46;49.07
10720;BME280;5411;58.386;15.560;2023-07-20T12:31:57;99244.69;;;21.62;48.65
10720;BME280;5411;58.386;15.560;2023-07-20T12:34:25;99243.69;;;21.72;48.10
10720;BME280;5411;58.386;15.560;2023-07-20T12:36:53;99251.53;;;21.59;47.03
10720;BME280;5411;58.386;15.560;2023-07-20T12:39:26;99238.94;;;21.50;48.42
10720;BME280;5411;58.386;15.560;2023-07-20T12:41:54;99247.09;;;21.36;46.91
10720;BME280;5411;58.386;15.560;2023-07-20T12:44:22;99242.38;;;21.28;48.03
10720;BME280;5411;58.386;15.560;2023-07-20T12:46:54;99253.94;;;21.20;47.56
10720;BME280;5411;58.386;15.560;2023-07-20T12:49:24;99246.81;;;21.05;48.66
10720;BME280;5411;58.386;15.560;2023-07-20T12:51:53;99244.25;;;21.14;47.25
10720;BME280;5411;58.386;15.560;2023-07-20T12:54:33;99240.94;;;21.17;46.92
10720;BME280;5411;58.386;15.560;2023-07-20T12:57:01;99245.56;;;21.16;47.45
10720;BME280;5411;58.386;15.560;2023-07-20T12:59:34;99229.97;;;21.22;44.46
10720;BME280;5411;58.386;15.560;2023-07-20T13:02:05;99238.13;;;21.36;45.47
10720;BME280;5411;58.386;15.560;2023-07-20T13:04:38;99229.38;;;21.52;46.09
10720;BME280;5411;58.386;15.560;2023-07-20T13:07:10;99233.78;;;21.76;45.18
10720;BME280;5411;58.386;15.560;2023-07-20T13:09:42;99242.19;;;21.79;44.90
10720;BME280;5411;58.386;15.560;2023-07-20T13:12:10;99234.53;;;21.67;45.18
10720;BME280;5411;58.386;15.560;2023-07-20T13:14:39;99240.88;;;21.63;46.18
10720;BME280;5411;58.386;15.560;2023-07-20T13:17:07;99241.75;;;21.45;47.90
10720;BME280;5411;58.386;15.560;2023-07-20T13:19:38;99245.72;;;21.39;48.26
10720;BME280;5411;58.386;15.560;2023-07-20T13:22:07;99230.88;;;21.45;47.86